createdAt,value
2019-05-30T00:01:28.443Z,9.70
2019-05-30T00:03:58.807Z,9.20
2019-05-30T00:06:27.086Z,9.40
2019-05-30T00:08:56.308Z,10.23
2019-05-30T00:11:24.908Z,9.63
2019-05-30T00:13:54.588Z,9.10
2019-05-30T00:16:23.508Z,9.47
2019-05-30T00:18:52.301Z,10.20
2019-05-30T00:21:20.762Z,9.40
2019-05-30T00:23:49.242Z,9.30
2019-05-30T00:26:17.643Z,9.77
2019-05-30T00:28:46.166Z,9.13
2019-05-30T00:31:14.913Z,10.40
2019-05-30T00:33:43.317Z,9.70
2019-05-30T00:36:11.773Z,9.47
2019-05-30T00:38:40.194Z,9.60
2019-05-30T00:41:08.644Z,9.60
2019-05-30T00:43:37.094Z,9.80
2019-05-30T00:46:06.273Z,9.50
2019-05-30T00:48:34.717Z,9.53
2019-05-30T00:51:04.295Z,9.77
2019-05-30T00:53:33.028Z,10.57
2019-05-30T00:56:03.120Z,10.47
2019-05-30T00:58:31.642Z,9.80
2019-05-30T01:01:01.025Z,10.03
2019-05-30T01:03:29.651Z,9.93
2019-05-30T01:05:58.735Z,9.70
2019-05-30T01:08:27.313Z,9.93
2019-05-30T01:10:56.883Z,9.43
2019-05-30T01:13:25.433Z,9.80
2019-05-30T01:15:53.957Z,9.70
2019-05-30T01:18:22.430Z,10.00
2019-05-30T01:20:51.202Z,9.60
2019-05-30T01:23:19.921Z,9.90
2019-05-30T01:25:48.457Z,9.73
2019-05-30T01:28:16.835Z,10.17
2019-05-30T01:30:59.085Z,9.60
2019-05-30T01:33:15.768Z,9.70
2019-05-30T01:35:44.181Z,9.30
2019-05-30T01:38:12.631Z,9.70
2019-05-30T01:40:41.035Z,9.30
2019-05-30T01:43:09.417Z,9.67
2019-05-30T01:45:37.871Z,9.73
2019-05-30T01:48:06.674Z,9.20
2019-05-30T01:50:35.149Z,9.63
2019-05-30T01:53:04.652Z,10.20
2019-05-30T01:55:33.351Z,9.80
2019-05-30T01:58:03.247Z,9.50
2019-05-30T02:00:39.579Z,9.57
2019-05-30T02:03:09.639Z,10.20
2019-05-30T02:05:39.079Z,11.40
2019-05-30T02:08:09.874Z,9.93
2019-05-30T02:10:38.684Z,11.60
2019-05-30T02:13:07.559Z,10.93
2019-05-30T02:15:36.174Z,10.00
2019-05-30T02:18:05.765Z,10.57
2019-05-30T02:20:34.343Z,10.23
2019-05-30T02:23:05.495Z,10.20
2019-05-30T02:25:33.320Z,9.00
2019-05-30T02:28:02.100Z,9.67
2019-05-30T02:30:30.722Z,9.43
2019-05-30T02:33:00.651Z,9.40
2019-05-30T02:35:29.239Z,9.10
2019-05-30T02:37:57.944Z,9.27
2019-05-30T02:40:26.652Z,12.33
2019-05-30T02:42:55.518Z,10.10
2019-05-30T02:45:23.960Z,11.80
2019-05-30T02:47:52.387Z,15.10
2019-05-30T02:50:21.467Z,17.43
2019-05-30T02:52:49.914Z,10.47
2019-05-30T02:55:18.664Z,10.30
2019-05-30T02:57:47.429Z,10.77
2019-05-30T03:00:17.941Z,9.50
2019-05-30T03:02:46.499Z,9.90
2019-05-30T03:05:15.432Z,10.40
2019-05-30T03:07:44.269Z,10.10
2019-05-30T03:10:15.083Z,9.80
2019-05-30T03:12:43.723Z,10.00
2019-05-30T03:15:15.249Z,10.00
2019-05-30T03:17:42.766Z,9.40
2019-05-30T03:20:21.133Z,9.43
2019-05-30T03:22:41.786Z,9.60
2019-05-30T03:25:13.144Z,9.53
2019-05-30T03:27:40.535Z,9.97
2019-05-30T03:30:18.247Z,9.83
2019-05-30T03:33:03.483Z,9.80
2019-05-30T03:35:22.341Z,10.20
2019-05-30T03:37:40.227Z,10.10
2019-05-30T03:40:09.036Z,9.47
2019-05-30T03:42:37.487Z,10.00
2019-05-30T03:45:10.745Z,9.90
2019-05-30T03:47:39.306Z,10.00
2019-05-30T03:50:11.694Z,9.80
2019-05-30T03:52:39.220Z,9.63
2019-05-30T03:55:09.940Z,9.70
2019-05-30T03:57:44.594Z,10.53
2019-05-30T04:00:40.877Z,10.43
2019-05-30T04:03:36.344Z,10.63
2019-05-30T04:06:10.173Z,9.70
2019-05-30T04:08:39.026Z,10.07
2019-05-30T04:11:10.387Z,9.80
2019-05-30T04:13:42.470Z,9.63
2019-05-30T04:16:11.229Z,9.97
2019-05-30T04:18:40.411Z,10.30
2019-05-30T04:21:10.848Z,9.57
2019-05-30T04:23:38.978Z,9.70
2019-05-30T04:26:07.554Z,10.00
2019-05-30T04:28:36.071Z,10.00
2019-05-30T04:31:04.543Z,10.10
2019-05-30T04:33:33.941Z,9.80
2019-05-30T04:36:02.575Z,10.17
2019-05-30T04:38:31.037Z,10.50
2019-05-30T04:40:59.785Z,10.33
2019-05-30T04:43:28.199Z,9.73
2019-05-30T04:45:56.558Z,10.03
2019-05-30T04:48:25.061Z,9.70
2019-05-30T04:50:53.513Z,9.90
2019-05-30T04:53:22.069Z,9.57
2019-05-30T04:55:50.438Z,9.53
2019-05-30T04:58:23.335Z,10.07
2019-05-30T05:00:49.129Z,10.07
2019-05-30T05:03:37.019Z,9.90
2019-05-30T05:05:47.917Z,9.70
2019-05-30T05:08:17.930Z,10.07
2019-05-30T05:10:46.601Z,10.23
2019-05-30T05:13:16.294Z,10.07
2019-05-30T05:15:44.836Z,10.10
2019-05-30T05:18:14.780Z,9.30
2019-05-30T05:20:43.872Z,9.60
2019-05-30T05:23:13.070Z,9.70
2019-05-30T05:25:41.701Z,9.57
2019-05-30T05:28:10.082Z,9.53
2019-05-30T05:30:38.747Z,9.43
2019-05-30T05:33:07.172Z,9.57
2019-05-30T05:35:35.895Z,9.43
2019-05-30T05:38:04.399Z,9.97
2019-05-30T05:40:33.285Z,10.00
2019-05-30T05:43:01.695Z,9.50
2019-05-30T05:45:30.543Z,10.40
2019-05-30T05:47:58.956Z,10.27
2019-05-30T05:50:28.703Z,10.43
2019-05-30T05:52:57.190Z,9.90
2019-05-30T05:55:25.706Z,9.60
2019-05-30T05:57:54.111Z,10.40
2019-05-30T06:00:23.284Z,9.93
2019-05-30T06:02:51.942Z,10.00
2019-05-30T06:05:20.537Z,9.87
2019-05-30T06:07:48.958Z,9.90
2019-05-30T06:10:19.471Z,10.23
2019-05-30T06:12:48.115Z,10.40
2019-05-30T06:15:16.913Z,10.40
2019-05-30T06:17:45.265Z,10.53
2019-05-30T06:20:13.955Z,9.50
2019-05-30T06:22:42.439Z,10.50
2019-05-30T06:25:11.024Z,9.90
2019-05-30T06:27:39.413Z,10.23
2019-05-30T06:30:08.775Z,9.30
2019-05-30T06:32:37.211Z,9.60
2019-05-30T06:35:09.101Z,9.87
2019-05-30T06:37:37.548Z,9.53
2019-05-30T06:40:07.934Z,9.50
2019-05-30T06:42:36.694Z,9.40
2019-05-30T06:45:10.409Z,9.70
2019-05-30T06:47:39.206Z,9.13
2019-05-30T06:50:07.951Z,9.53
2019-05-30T06:52:36.537Z,9.50
2019-05-30T06:55:06.776Z,9.53
2019-05-30T06:57:35.217Z,9.20
2019-05-30T07:00:06.297Z,9.50
2019-05-30T07:02:34.768Z,8.80
2019-05-30T07:05:04.105Z,9.20
2019-05-30T07:07:33.503Z,9.23
2019-05-30T07:10:02.333Z,9.30
2019-05-30T07:12:31.162Z,9.37
2019-05-30T07:14:59.714Z,9.13
2019-05-30T07:17:29.437Z,9.43
2019-05-30T07:19:58.001Z,9.60
2019-05-30T07:22:27.646Z,9.30
2019-05-30T07:24:56.167Z,9.60
2019-05-30T07:27:25.574Z,9.57
2019-05-30T07:29:54.640Z,9.03
2019-05-30T07:32:24.033Z,10.30
2019-05-30T07:35:05.534Z,9.97
2019-05-30T07:37:24.378Z,9.07
2019-05-30T07:39:53.198Z,9.30
2019-05-30T07:42:21.820Z,8.90
2019-05-30T07:44:50.628Z,8.60
2019-05-30T07:47:19.143Z,8.70
2019-05-30T07:49:47.554Z,8.80
2019-05-30T07:52:16.065Z,9.30
2019-05-30T07:54:44.530Z,8.57
2019-05-30T07:57:12.912Z,9.07
2019-05-30T07:59:41.404Z,9.40
2019-05-30T08:02:10.250Z,8.80
2019-05-30T08:04:38.780Z,8.67
2019-05-30T08:07:07.178Z,9.10
2019-05-30T08:09:35.623Z,8.97
2019-05-30T08:12:04.205Z,8.63
2019-05-30T08:14:33.294Z,8.63
2019-05-30T08:17:01.765Z,8.20
2019-05-30T08:19:30.211Z,8.83
2019-05-30T08:21:58.602Z,8.50
2019-05-30T08:24:28.079Z,8.63
2019-05-30T08:26:56.677Z,8.30
2019-05-30T08:29:25.136Z,8.70
2019-05-30T08:31:53.590Z,8.13
2019-05-30T08:34:22.371Z,8.50
2019-05-30T08:36:51.084Z,8.90
2019-05-30T08:39:19.738Z,8.73
2019-05-30T08:41:48.292Z,8.30
2019-05-30T08:44:16.846Z,8.10
2019-05-30T08:46:45.294Z,8.00
2019-05-30T08:49:13.843Z,8.30
2019-05-30T08:51:42.558Z,8.00
2019-05-30T08:54:13.615Z,8.03
2019-05-30T08:56:41.223Z,8.70
2019-05-30T08:59:10.070Z,8.60
2019-05-30T09:01:40.337Z,8.40
2019-05-30T09:04:08.707Z,8.10
2019-05-30T09:06:37.850Z,8.30
2019-05-30T09:09:07.977Z,10.27
2019-05-30T09:11:37.661Z,8.30
2019-05-30T09:14:06.771Z,8.20
2019-05-30T09:16:35.458Z,8.40
2019-05-30T09:19:04.367Z,8.40
2019-05-30T09:21:32.895Z,8.13
2019-05-30T09:24:01.828Z,8.13
2019-05-30T09:26:30.387Z,9.37
2019-05-30T09:28:58.764Z,8.70
2019-05-30T09:31:27.193Z,8.57
2019-05-30T09:33:55.564Z,7.97
2019-05-30T09:36:24.017Z,8.50
2019-05-30T09:38:52.530Z,8.10
2019-05-30T09:41:20.923Z,8.17
2019-05-30T09:43:50.250Z,8.30
2019-05-30T09:46:19.001Z,7.93
2019-05-30T09:48:48.631Z,7.90
2019-05-30T09:51:17.218Z,8.47
2019-05-30T09:53:46.015Z,8.17
2019-05-30T09:56:14.522Z,8.00
2019-05-30T09:58:43.974Z,9.20
2019-05-30T10:01:13.070Z,8.13
2019-05-30T10:03:43.068Z,8.23
2019-05-30T10:06:28.192Z,7.90
2019-05-30T10:08:42.474Z,8.70
2019-05-30T10:11:15.995Z,8.00
2019-05-30T10:13:43.997Z,7.90
2019-05-30T10:16:13.184Z,8.37
2019-05-30T10:18:41.639Z,8.00
2019-05-30T10:21:10.111Z,8.30
2019-05-30T10:23:38.548Z,8.23
2019-05-30T10:26:07.041Z,8.00
2019-05-30T10:28:35.494Z,8.30
2019-05-30T10:31:04.179Z,8.10
2019-05-30T10:33:33.077Z,9.33
2019-05-30T10:36:01.555Z,8.60
2019-05-30T10:38:29.991Z,8.40
2019-05-30T10:40:58.454Z,8.20
2019-05-30T10:43:26.895Z,8.23
2019-05-30T10:45:55.584Z,7.77
2019-05-30T10:48:24.106Z,7.63
2019-05-30T10:50:52.823Z,8.10
2019-05-30T10:53:21.296Z,8.20
2019-05-30T10:55:50.112Z,8.10
2019-05-30T10:58:19.126Z,7.97
2019-05-30T11:00:53.103Z,8.43
2019-05-30T11:03:22.949Z,8.10
2019-05-30T11:05:57.221Z,7.90
2019-05-30T11:08:27.445Z,7.80
2019-05-30T11:10:56.825Z,8.10
2019-05-30T11:13:25.485Z,8.20
2019-05-30T11:15:55.509Z,7.83
2019-05-30T11:18:24.119Z,8.40
2019-05-30T11:20:53.983Z,9.10
2019-05-30T11:23:22.894Z,8.60
2019-05-30T11:25:52.519Z,8.20
2019-05-30T11:28:21.206Z,8.33
2019-05-30T11:30:50.602Z,8.50
2019-05-30T11:33:19.254Z,8.20
2019-05-30T11:35:48.885Z,8.40
2019-05-30T11:38:17.778Z,8.57
2019-05-30T11:40:46.181Z,8.60
2019-05-30T11:43:14.561Z,8.13
2019-05-30T11:45:42.956Z,8.20
2019-05-30T11:48:11.396Z,8.40
2019-05-30T11:50:39.800Z,8.00
2019-05-30T11:53:08.260Z,7.90
2019-05-30T11:55:36.961Z,8.20
2019-05-30T11:58:05.402Z,8.17
2019-05-30T12:00:34.103Z,8.13
2019-05-30T12:03:02.634Z,8.67
2019-05-30T12:05:31.200Z,7.97
2019-05-30T12:08:00.976Z,8.50
2019-05-30T12:10:29.996Z,8.30
2019-05-30T12:12:59.419Z,8.17
2019-05-30T12:15:28.182Z,8.00
2019-05-30T12:17:57.473Z,8.30
2019-05-30T12:20:26.288Z,9.00
2019-05-30T12:22:55.825Z,8.30
2019-05-30T12:25:24.548Z,9.00
2019-05-30T12:27:53.959Z,8.60
2019-05-30T12:30:22.715Z,9.20
2019-05-30T12:32:52.360Z,8.03
2019-05-30T12:35:21.313Z,8.83
2019-05-30T12:37:56.226Z,7.90
2019-05-30T12:40:20.154Z,8.27
2019-05-30T12:42:48.599Z,8.03
2019-05-30T12:45:17.577Z,7.90
2019-05-30T12:47:46.092Z,7.93
2019-05-30T12:50:16.969Z,8.10
2019-05-30T12:52:45.407Z,8.10
2019-05-30T12:55:14.243Z,7.90
2019-05-30T12:57:42.831Z,8.20
2019-05-30T13:00:19.210Z,8.27
2019-05-30T13:02:47.804Z,8.30
2019-05-30T13:05:16.981Z,8.17
2019-05-30T13:07:45.437Z,8.00
2019-05-30T13:10:14.001Z,8.20
2019-05-30T13:12:42.407Z,7.93
2019-05-30T13:15:11.425Z,8.00
2019-05-30T13:17:39.950Z,8.03
2019-05-30T13:20:10.257Z,8.30
2019-05-30T13:22:39.454Z,8.20
2019-05-30T13:25:09.784Z,7.60
2019-05-30T13:27:38.223Z,8.50
2019-05-30T13:30:08.549Z,8.37
2019-05-30T13:32:36.998Z,8.00
2019-05-30T13:35:07.644Z,8.17
2019-05-30T13:37:36.172Z,8.00
2019-05-30T13:40:24.390Z,7.90
2019-05-30T13:42:40.537Z,8.40
2019-05-30T13:45:10.932Z,7.93
2019-05-30T13:47:39.555Z,7.87
2019-05-30T13:50:12.976Z,7.97
2019-05-30T13:52:39.677Z,8.50
2019-05-30T13:55:10.103Z,8.87
2019-05-30T13:57:38.974Z,8.40
2019-05-30T14:00:10.439Z,7.93
2019-05-30T14:02:39.824Z,8.40
2019-05-30T14:05:08.677Z,8.40
2019-05-30T14:07:37.061Z,8.50
2019-05-30T14:10:07.089Z,8.07
2019-05-30T14:12:35.910Z,8.20
2019-05-30T14:15:11.917Z,8.50
2019-05-30T14:17:39.563Z,8.27
2019-05-30T14:20:09.041Z,8.70
2019-05-30T14:22:37.632Z,8.93
2019-05-30T14:25:07.831Z,8.57
2019-05-30T14:27:36.741Z,8.87
2019-05-30T14:30:10.844Z,8.50
2019-05-30T14:32:39.521Z,8.43
2019-05-30T14:35:11.701Z,8.63
2019-05-30T14:37:39.570Z,8.53
2019-05-30T14:40:13.095Z,8.50
2019-05-30T14:42:41.803Z,8.70
2019-05-30T14:45:14.545Z,9.20
2019-05-30T14:47:43.617Z,8.90
2019-05-30T14:50:14.339Z,8.50
2019-05-30T14:52:42.795Z,8.93
2019-05-30T14:55:13.370Z,8.87
2019-05-30T14:57:42.295Z,8.57
2019-05-30T15:00:17.681Z,9.10
2019-05-30T15:02:46.300Z,9.03
2019-05-30T15:05:15.973Z,9.00
2019-05-30T15:07:44.618Z,8.67
2019-05-30T15:10:15.041Z,8.43
2019-05-30T15:12:43.492Z,9.03
2019-05-30T15:15:16.613Z,9.33
2019-05-30T15:17:44.466Z,8.57
2019-05-30T15:20:13.844Z,8.40
2019-05-30T15:22:42.776Z,8.57
2019-05-30T15:25:12.071Z,8.73
2019-05-30T15:27:40.970Z,8.77
2019-05-30T15:30:12.480Z,8.90
2019-05-30T15:32:41.297Z,9.20
2019-05-30T15:35:10.967Z,8.80
2019-05-30T15:37:40.930Z,8.80
2019-05-30T15:40:11.178Z,8.27
2019-05-30T15:42:39.958Z,8.90
2019-05-30T15:45:12.041Z,9.10
2019-05-30T15:47:40.820Z,9.00
2019-05-30T15:50:11.245Z,9.00
2019-05-30T15:52:39.761Z,9.07
2019-05-30T15:55:09.595Z,9.40
2019-05-30T15:57:38.028Z,8.87
2019-05-30T16:00:08.149Z,8.93
2019-05-30T16:02:36.659Z,9.07
2019-05-30T16:05:07.153Z,9.10
2019-05-30T16:07:35.938Z,9.10
2019-05-30T16:10:06.623Z,9.27
2019-05-30T16:12:35.143Z,9.00
2019-05-30T16:15:04.774Z,9.33
2019-05-30T16:17:33.380Z,8.93
2019-05-30T16:20:02.142Z,9.53
2019-05-30T16:22:30.623Z,9.40
2019-05-30T16:24:59.411Z,9.00
2019-05-30T16:27:31.011Z,9.03
2019-05-30T16:29:58.031Z,9.33
2019-05-30T16:32:26.515Z,9.33
2019-05-30T16:34:54.971Z,9.47
2019-05-30T16:37:23.423Z,8.77
2019-05-30T16:40:05.108Z,9.57
2019-05-30T16:42:22.360Z,8.90
2019-05-30T16:44:51.482Z,8.93
2019-05-30T16:47:20.503Z,9.00
2019-05-30T16:49:48.992Z,9.20
2019-05-30T16:52:17.372Z,8.97
2019-05-30T16:54:45.822Z,8.70
2019-05-30T16:57:14.613Z,8.80
2019-05-30T16:59:43.133Z,8.70
2019-05-30T17:02:11.543Z,9.30
2019-05-30T17:04:40.003Z,8.93
2019-05-30T17:07:08.390Z,8.93
2019-05-30T17:09:36.918Z,9.00
2019-05-30T17:12:05.693Z,9.00
2019-05-30T17:14:34.180Z,8.80
2019-05-30T17:17:03.140Z,8.90
2019-05-30T17:19:31.737Z,8.80
2019-05-30T17:22:00.116Z,9.13
2019-05-30T17:24:28.571Z,9.17
2019-05-30T17:26:56.984Z,9.23
2019-05-30T17:29:25.750Z,9.00
2019-05-30T17:31:54.333Z,9.23
2019-05-30T17:34:23.966Z,8.63
2019-05-30T17:36:52.566Z,9.00
2019-05-30T17:39:20.967Z,9.70
2019-05-30T17:41:49.519Z,8.83
2019-05-30T17:44:19.083Z,9.40
2019-05-30T17:46:47.516Z,8.80
2019-05-30T17:49:17.452Z,8.77
2019-05-30T17:51:45.832Z,8.70
2019-05-30T17:54:14.325Z,8.80
2019-05-30T17:56:42.707Z,8.93
2019-05-30T17:59:11.185Z,8.70
2019-05-30T18:01:39.663Z,9.00
2019-05-30T18:04:08.153Z,13.37
2019-05-30T18:06:36.727Z,9.20
2019-05-30T18:09:07.391Z,8.87
2019-05-30T18:11:35.889Z,9.20
2019-05-30T18:14:04.421Z,9.00
2019-05-30T18:16:33.043Z,9.30
2019-05-30T18:19:01.427Z,8.70
2019-05-30T18:21:29.908Z,8.70
2019-05-30T18:23:58.358Z,8.73
2019-05-30T18:26:27.530Z,8.53
2019-05-30T18:28:56.128Z,8.73
2019-05-30T18:31:25.811Z,8.70
2019-05-30T18:33:54.422Z,9.20
2019-05-30T18:36:24.239Z,8.40
2019-05-30T18:38:52.796Z,8.70
2019-05-30T18:41:22.661Z,8.70
2019-05-30T18:43:51.258Z,9.10
2019-05-30T18:46:19.676Z,9.03
2019-05-30T18:48:48.165Z,8.30
2019-05-30T18:51:16.565Z,9.30
2019-05-30T18:53:45.063Z,8.70
2019-05-30T18:56:13.848Z,8.40
2019-05-30T18:58:42.422Z,8.20
2019-05-30T19:01:11.055Z,8.70
2019-05-30T19:03:39.525Z,8.70
2019-05-30T19:06:08.037Z,8.13
2019-05-30T19:08:36.595Z,8.60
2019-05-30T19:11:05.220Z,8.33
2019-05-30T19:13:33.622Z,8.60
2019-05-30T19:16:02.407Z,8.60
2019-05-30T19:18:31.620Z,8.50
2019-05-30T19:21:00.090Z,9.07
2019-05-30T19:23:30.030Z,8.27
2019-05-30T19:25:58.622Z,8.80
2019-05-30T19:28:27.019Z,8.50
2019-05-30T19:30:55.763Z,8.67
2019-05-30T19:33:24.147Z,8.57
2019-05-30T19:35:53.038Z,9.03
2019-05-30T19:38:21.723Z,8.83
2019-05-30T19:40:50.187Z,8.90
2019-05-30T19:43:18.560Z,8.83
2019-05-30T19:45:47.051Z,9.10
2019-05-30T19:48:15.507Z,9.13
2019-05-30T19:50:43.967Z,8.90
2019-05-30T19:53:12.922Z,9.20
2019-05-30T19:55:41.435Z,9.00
2019-05-30T19:58:09.927Z,9.33
2019-05-30T20:00:56.715Z,8.83
2019-05-30T20:03:09.730Z,9.03
2019-05-30T20:05:38.876Z,8.87
2019-05-30T20:08:07.514Z,9.20
2019-05-30T20:10:37.117Z,9.07
2019-05-30T20:13:05.847Z,9.27
2019-05-30T20:15:35.457Z,9.20
2019-05-30T20:18:04.404Z,9.23
2019-05-30T20:20:49.326Z,9.10
2019-05-30T20:23:03.413Z,9.70
2019-05-30T20:25:32.624Z,8.87
2019-05-30T20:28:01.162Z,8.80
2019-05-30T20:30:29.576Z,9.30
2019-05-30T20:32:58.067Z,8.73
2019-05-30T20:35:26.583Z,9.50
2019-05-30T20:37:54.984Z,9.40
2019-05-30T20:40:23.812Z,9.30
2019-05-30T20:42:52.219Z,8.83
2019-05-30T20:45:20.757Z,8.80
2019-05-30T20:47:49.167Z,9.23
2019-05-30T20:50:18.157Z,9.50
2019-05-30T20:52:47.617Z,9.27
2019-05-30T20:55:16.497Z,9.00
2019-05-30T20:57:45.010Z,9.60
2019-05-30T21:00:15.335Z,10.03
2019-05-30T21:02:43.903Z,9.50
2019-05-30T21:05:12.386Z,9.30
2019-05-30T21:07:44.239Z,9.67
2019-05-30T21:10:13.374Z,9.87
2019-05-30T21:12:49.014Z,9.87
2019-05-30T21:15:14.472Z,9.70
2019-05-30T21:17:46.083Z,9.43
2019-05-30T21:20:15.089Z,9.20
2019-05-30T21:22:44.710Z,9.40
2019-05-30T21:25:13.356Z,9.83
2019-05-30T21:27:43.062Z,9.70
2019-05-30T21:30:11.779Z,9.60
2019-05-30T21:32:41.711Z,9.10
2019-05-30T21:35:10.717Z,9.33
2019-05-30T21:37:39.666Z,9.10
2019-05-30T21:40:08.606Z,9.47
2019-05-30T21:42:51.490Z,9.97
2019-05-30T21:45:08.937Z,9.77
2019-05-30T21:47:38.628Z,9.37
2019-05-30T21:50:07.984Z,9.30
2019-05-30T21:52:36.436Z,9.70
2019-05-30T21:55:06.186Z,9.33
2019-05-30T21:57:34.661Z,9.30
2019-05-30T22:00:04.962Z,9.50
2019-05-30T22:02:33.600Z,9.63
2019-05-30T22:05:02.266Z,9.50
2019-05-30T22:07:30.840Z,10.33
2019-05-30T22:10:01.630Z,9.50
2019-05-30T22:12:30.118Z,9.40
2019-05-30T22:14:58.973Z,10.00
2019-05-30T22:17:28.026Z,9.63
2019-05-30T22:19:56.704Z,9.80
2019-05-30T22:22:25.489Z,9.90
2019-05-30T22:24:54.278Z,9.67
2019-05-30T22:27:23.067Z,9.97
2019-05-30T22:29:52.646Z,9.53
2019-05-30T22:32:21.205Z,9.40
2019-05-30T22:34:50.843Z,9.80
2019-05-30T22:37:19.317Z,10.10
2019-05-30T22:39:48.950Z,9.60
2019-05-30T22:42:17.974Z,9.63
2019-05-30T22:44:46.393Z,9.70
2019-05-30T22:47:14.798Z,10.00
2019-05-30T22:49:44.643Z,9.77
2019-05-30T22:52:13.623Z,9.83
2019-05-30T22:54:42.005Z,9.90
2019-05-30T22:57:10.463Z,9.70
2019-05-30T22:59:38.915Z,10.10
2019-05-30T23:02:07.379Z,9.70
2019-05-30T23:04:35.883Z,9.93
2019-05-30T23:07:04.326Z,10.13
2019-05-30T23:09:32.766Z,9.80
2019-05-30T23:12:01.264Z,9.93
2019-05-30T23:14:29.628Z,10.17
2019-05-30T23:16:58.049Z,9.87
2019-05-30T23:19:26.434Z,9.60
2019-05-30T23:21:55.136Z,10.40
2019-05-30T23:24:23.674Z,10.00
2019-05-30T23:26:52.222Z,10.40
2019-05-30T23:29:20.610Z,10.10
2019-05-30T23:31:49.915Z,11.30
2019-05-30T23:34:18.399Z,9.80
2019-05-30T23:36:46.781Z,10.80
2019-05-30T23:39:15.183Z,10.33
2019-05-30T23:41:43.645Z,10.20
2019-05-30T23:44:12.271Z,10.53
2019-05-30T23:46:40.683Z,10.70
2019-05-30T23:49:09.438Z,10.67
2019-05-30T23:51:38.123Z,10.00
2019-05-30T23:54:06.566Z,10.60
2019-05-30T23:56:34.946Z,10.20
2019-05-30T23:59:03.466Z,10.10
